Time;durP1;ratioP1;P1;durP2;ratioP2;P2;SDS_P1;SDS_P2;PMS_P1;PMS_P2;Temp;Humidity;BMP_temperature;BMP_pressure;BME280_temperature;BME280_humidity;BME280_pressure;Samples;Min_cycle;Max_cycle;Signal;HPM_P1;HPM_P2
2023/03/28 00:02:09;;;;;;;2.10;1.20;;;2.70;79.40;;;0.79;55.76;99739.16;10234302;28;96890;-83
2023/03/28 00:07:13;;;;;;;5.37;1.60;;;2.70;79.40;;;0.75;56.26;99750.78;10233210;28;96451;-83
2023/03/28 00:12:16;;;;;;;3.30;1.20;;;2.70;79.50;;;0.72;56.11;99748.44;10282954;28;96504;-82
2023/03/28 00:17:19;;;;;;;2.37;0.90;;;2.60;79.90;;;0.68;56.18;99772.31;10257234;28;96548;-82
2023/03/28 00:22:22;;;;;;;3.83;1.70;;;2.60;79.60;;;0.65;56.61;99775.97;10261879;28;96475;-82
2023/03/28 00:27:25;;;;;;;2.73;1.40;;;2.50;79.90;;;0.59;56.87;99781.66;10249059;28;96506;-82
2023/03/28 00:32:28;;;;;;;3.93;2.00;;;2.50;80.30;;;0.51;57.01;99789.25;10269399;28;97432;-82
2023/03/28 00:37:31;;;;;;;3.10;1.40;;;2.40;80.40;;;0.39;57.50;99795.38;10236751;28;96674;-82
2023/03/28 00:42:41;;;;;;;2.47;1.30;;;2.30;80.90;;;0.27;57.94;99802.34;10269911;28;96536;-81
2023/03/28 00:48:00;;;;;;;3.03;1.10;;;2.20;81.50;;;0.24;58.37;99798.19;10256314;28;97213;-81
2023/03/28 00:53:22;;;;;;;2.03;0.80;;;2.20;81.80;;;0.20;58.51;99801.13;10274042;28;96690;-82
2023/03/28 00:58:31;;;;;;;2.28;1.30;;;2.10;81.70;;;0.18;58.54;99811.69;10260096;28;96564;-80
2023/03/28 01:03:36;;;;;;;4.03;1.23;;;2.10;82.00;;;0.19;58.44;99815.97;10235166;28;97996;-81
2023/03/28 01:08:43;;;;;;;3.23;1.57;;;2.10;82.00;;;0.19;58.77;99826.44;10257570;28;96897;-81
2023/03/28 01:13:51;;;;;;;3.20;1.70;;;2.10;82.40;;;0.18;59.07;99834.34;10275771;28;96492;-81
2023/03/28 01:19:00;;;;;;;2.03;1.30;;;2.10;82.80;;;0.13;59.40;99832.09;10251865;28;98878;-81
2023/03/28 01:24:28;;;;;;;4.90;1.70;;;2.00;83.00;;;0.07;59.90;99836.94;10247260;28;96849;-81
2023/03/28 01:30:14;;;;;;;6.10;2.80;;;2.00;83.80;;;0.08;59.95;99839.44;10266062;28;96566;-81
2023/03/28 01:35:43;;;;;;;2.97;1.57;;;2.00;83.70;;;0.04;60.52;99842.34;10253854;28;96603;-81
2023/03/28 01:41:07;;;;;;;3.63;2.00;;;1.90;84.20;;;-0.02;61.06;99846.25;10238023;28;96524;-81
2023/03/28 01:46:38;;;;;;;4.70;2.00;;;1.90;84.80;;;-0.04;61.17;99856.81;10266484;28;96962;-81
2023/03/28 01:52:11;;;;;;;3.73;1.43;;;1.80;85.50;;;-0.02;61.08;99861.91;10248689;28;97368;-81
2023/03/28 01:57:50;;;;;;;3.33;1.90;;;1.80;85.50;;;-0.02;61.79;99864.53;10268652;28;97304;-81
2023/03/28 02:03:10;;;;;;;5.50;1.90;;;1.80;86.40;;;-0.02;62.21;99873.19;10283753;28;96917;-82
2023/03/28 02:08:16;;;;;;;2.87;1.60;;;1.90;86.90;;;-0.01;62.80;99882.69;10285428;28;96735;-81
2023/03/28 02:13:39;;;;;;;3.87;1.93;;;1.80;87.70;;;-0.05;63.85;99885.66;10278850;28;96370;-81
2023/03/28 02:18:49;;;;;;;3.33;1.80;;;1.80;88.90;;;-0.09;64.13;99878.97;10244681;28;96773;-81
2023/03/28 02:23:54;;;;;;;2.40;1.10;;;1.80;89.70;;;-0.11;65.38;99899.16;10233993;28;96789;-81
2023/03/28 02:28:59;;;;;;;3.00;1.60;;;1.70;90.50;;;-0.15;66.19;99890.69;10273674;28;96638;-81
2023/03/28 02:34:02;;;;;;;4.57;1.80;;;1.70;90.80;;;-0.17;66.54;99896.97;10282446;28;97362;-80
2023/03/28 02:40:06;;;;;;;2.70;1.70;;;1.60;91.10;;;-0.17;67.38;99904.78;10264281;28;96614;-81
2023/03/28 02:46:07;;;;;;;3.88;1.55;;;1.70;91.50;;;-0.13;67.99;99909.69;10268599;28;96649;-81
2023/03/28 02:51:33;;;;;;;5.10;1.90;;;1.60;92.00;;;-0.10;68.15;99924.31;10170330;28;96578;-82
2023/03/28 02:57:10;;;;;;;4.10;2.17;;;1.70;92.40;;;-0.06;68.31;99949.25;10247420;28;96607;-81
2023/03/28 03:02:20;;;;;;;4.87;2.00;;;1.70;92.60;;;-0.06;69.11;99952.75;10259385;28;99787;-82
2023/03/28 03:07:24;;;;;;;3.87;2.10;;;1.70;92.80;;;-0.07;69.57;99963.28;10236443;28;97463;-81
2023/03/28 03:12:27;;;;;;;3.47;1.93;;;1.70;93.20;;;-0.12;70.36;99968.84;10253671;28;96724;-81
2023/03/28 03:17:30;;;;;;;3.37;2.30;;;1.70;93.50;;;-0.12;70.86;99981.03;10242809;28;98398;-81
2023/03/28 03:22:35;;;;;;;3.73;2.23;;;1.70;93.90;;;-0.14;70.99;99990.75;10243700;28;96477;-81
2023/03/28 03:27:39;;;;;;;6.10;2.60;;;1.70;94.30;;;-0.14;71.71;99988.16;10251376;28;96584;-82
2023/03/28 03:32:44;;;;;;;3.87;2.63;;;1.70;94.50;;;-0.16;72.35;99993.47;10269886;28;96553;-81
2023/03/28 03:37:47;;;;;;;4.40;2.57;;;1.70;94.90;;;-0.18;72.48;100011.03;10265417;28;97788;-81
2023/03/28 03:42:50;;;;;;;4.80;2.97;;;1.60;95.20;;;-0.22;73.39;100020.00;10262047;28;96896;-81
2023/03/28 03:47:53;;;;;;;5.00;3.23;;;1.60;95.70;;;-0.22;73.45;100016.56;10268586;28;98364;-81
2023/03/28 03:52:57;;;;;;;4.70;3.13;;;1.60;95.80;;;-0.26;73.98;100023.75;10258825;28;96503;-81
2023/03/28 03:58:01;;;;;;;4.97;3.17;;;1.60;96.20;;;-0.31;74.32;100024.06;10276188;28;96538;-81
2023/03/28 04:03:05;;;;;;;6.40;3.53;;;1.50;96.70;;;-0.33;75.05;100033.78;10227991;28;96693;-80
2023/03/28 04:08:08;;;;;;;5.03;3.40;;;1.50;96.90;;;-0.38;75.47;100029.81;10242535;28;98044;-80
2023/03/28 04:13:11;;;;;;;4.90;3.00;;;1.40;97.30;;;-0.38;75.34;100046.31;10250210;28;97975;-81
2023/03/28 04:18:19;;;;;;;8.43;3.97;;;1.40;97.60;;;-0.40;75.78;100052.59;10252054;28;98330;-80
2023/03/28 04:23:25;;;;;;;9.10;4.20;;;1.40;97.70;;;-0.47;75.90;100057.38;10251949;28;96648;-80
2023/03/28 04:28:28;;;;;;;7.60;4.33;;;1.40;98.10;;;-0.52;76.91;100054.22;10234972;28;96619;-80
2023/03/28 04:33:32;;;;;;;6.70;3.67;;;1.30;98.70;;;-0.45;76.27;100055.50;10249217;28;97339;-80
2023/03/28 04:38:36;;;;;;;6.83;3.63;;;1.30;98.80;;;-0.45;76.80;100058.09;10279752;28;97682;-81
2023/03/28 04:43:39;;;;;;;7.70;4.47;;;1.30;98.80;;;-0.47;77.17;100072.19;10253630;28;96565;-80
2023/03/28 04:48:42;;;;;;;6.23;4.57;;;1.30;99.20;;;-0.45;77.04;100062.47;10263791;28;97364;-80
2023/03/28 04:53:45;;;;;;;4.30;3.20;;;1.40;99.30;;;-0.38;76.63;100075.03;10275312;28;97435;-81
2023/03/28 04:58:48;;;;;;;4.53;3.43;;;1.40;99.00;;;-0.34;75.95;100073.91;10245936;28;96591;-80
2023/03/28 05:03:50;;;;;;;6.40;4.23;;;1.40;98.90;;;-0.24;75.11;100084.59;10249132;28;97137;-81
2023/03/28 05:08:54;;;;;;;4.93;2.77;;;1.50;98.50;;;-0.16;74.73;100087.50;10283947;28;96477;-82
2023/03/28 05:13:57;;;;;;;6.23;4.10;;;1.60;98.20;;;-0.12;74.42;100090.72;10274293;28;96670;-81
2023/03/28 05:19:00;;;;;;;5.90;3.63;;;1.60;98.20;;;-0.06;74.36;100106.00;10244710;28;98952;-80
2023/03/28 05:24:04;;;;;;;4.80;3.60;;;1.70;98.20;;;0.00;74.43;100103.00;10251229;28;97290;-81
2023/03/28 05:29:07;;;;;;;4.40;3.30;;;1.80;98.30;;;0.07;74.27;100103.44;10247787;28;96583;-81
2023/03/28 05:34:10;;;;;;;5.80;4.10;;;1.80;98.10;;;0.14;74.07;100113.34;10212870;28;97434;-81
2023/03/28 05:39:13;;;;;;;5.90;3.50;;;1.90;98.10;;;0.21;74.02;100122.44;10198067;28;96394;-80
2023/03/28 05:44:16;;;;;;;5.17;3.47;;;1.90;98.00;;;0.29;73.48;100128.91;10233382;28;96487;-80
2023/03/28 05:49:21;;;;;;;7.13;4.00;;;2.00;97.90;;;0.36;73.73;100136.25;10209093;28;96524;-80
2023/03/28 05:54:24;;;;;;;5.03;3.53;;;2.00;97.80;;;0.47;73.09;100149.41;10208723;28;96503;-81
2023/03/28 05:59:27;;;;;;;5.33;3.53;;;2.10;97.40;;;0.57;72.73;100147.03;10216220;28;96707;-80
2023/03/28 06:04:30;;;;;;;4.33;3.10;;;2.30;97.40;;;0.66;72.53;100158.63;10221172;28;96463;-80
2023/03/28 06:09:34;;;;;;;4.47;2.97;;;2.40;97.40;;;0.76;71.23;100157.03;10281922;28;96484;-80
2023/03/28 06:14:37;;;;;;;4.83;3.07;;;2.40;96.70;;;0.88;71.11;100161.41;10255658;28;96567;-81
2023/03/28 06:19:40;;;;;;;4.97;2.83;;;2.50;96.40;;;1.00;69.93;100178.03;10254627;28;97240;-80
2023/03/28 06:24:43;;;;;;;7.50;2.87;;;2.60;95.80;;;1.12;69.83;100182.41;10215406;28;96563;-80
2023/03/28 06:29:46;;;;;;;5.40;3.17;;;2.80;95.80;;;1.26;68.67;100197.13;10214653;28;96453;-80
2023/03/28 06:34:49;;;;;;;4.00;3.37;;;2.90;95.30;;;1.36;69.13;100197.34;10217593;28;97497;-80
2023/03/28 06:39:53;;;;;;;4.07;3.50;;;3.00;95.50;;;1.50;68.15;100208.53;10262346;28;96617;-79
2023/03/28 06:44:56;;;;;;;5.40;3.50;;;3.10;95.00;;;1.66;68.70;100229.19;10254670;28;96433;-79
2023/03/28 06:49:59;;;;;;;5.83;3.23;;;3.30;95.30;;;1.76;67.19;100234.63;10252340;28;96719;-78
2023/03/28 06:55:02;;;;;;;5.83;3.47;;;3.40;94.60;;;1.86;67.68;100233.00;10215188;28;98125;-80
2023/03/28 07:00:07;;;;;;;6.97;4.03;;;3.50;94.80;;;1.98;67.93;100236.50;10258969;28;96560;-79
2023/03/28 07:05:10;;;;;;;6.27;4.57;;;3.60;95.00;;;2.04;67.70;100230.81;10291612;28;96990;-80
2023/03/28 07:10:13;;;;;;;6.87;3.80;;;3.70;94.80;;;2.11;67.88;100235.50;10208277;28;96551;-80
2023/03/28 07:15:16;;;;;;;5.83;4.30;;;3.70;94.70;;;2.31;67.55;100226.16;10212972;28;96588;-81
2023/03/28 07:20:22;;;;;;;5.90;3.50;;;3.90;94.80;;;2.49;65.32;100229.19;10245406;28;96547;-81
2023/03/28 07:25:25;;;;;;;7.37;3.97;;;4.10;93.50;;;2.71;65.78;100228.41;10248615;28;96623;-80
2023/03/28 07:30:28;;;;;;;6.30;3.23;;;4.30;93.80;;;2.92;64.81;100239.03;10249048;28;96398;-80
2023/03/28 07:35:31;;;;;;;4.60;2.87;;;4.60;93.20;;;3.11;64.22;100238.44;10272381;28;96490;-80
2023/03/28 07:40:35;;;;;;;5.47;2.67;;;4.70;92.80;;;3.19;64.50;100247.41;10213350;28;96535;-80
2023/03/28 07:45:38;;;;;;;5.57;2.70;;;4.80;92.90;;;3.23;63.15;100238.31;10222470;28;96536;-79
2023/03/28 07:50:41;;;;;;;4.77;2.37;;;4.90;92.30;;;3.38;63.48;100241.56;10234726;28;96546;-80
2023/03/28 07:55:47;;;;;;;3.90;2.20;;;5.00;92.30;;;3.35;62.03;100236.53;10283595;28;97194;-81
2023/03/28 08:01:07;;;;;;;4.20;1.80;;;5.10;91.40;;;3.70;61.02;100233.75;10292575;28;96490;-81
2023/03/28 08:06:12;;;;;;;4.03;2.00;;;5.30;90.80;;;4.06;60.07;100215.09;10267531;28;96505;-82
2023/03/28 08:11:35;;;;;;;4.37;1.47;;;5.60;90.60;;;4.43;58.87;100226.88;10272822;28;96413;-82
2023/03/28 08:16:39;;;;;;;4.53;1.73;;;5.80;90.00;;;4.49;57.70;100231.63;10276519;28;96522;-81
2023/03/28 08:21:42;;;;;;;3.47;1.77;;;5.90;88.20;;;5.08;56.28;100227.53;10227609;28;96582;-80
2023/03/28 08:26:45;;;;;;;4.13;1.43;;;6.20;87.20;;;5.69;53.90;100231.91;10286842;28;96679;-81
2023/03/28 08:31:50;;;;;;;2.53;1.40;;;6.50;85.50;;;6.17;52.43;100224.91;10237713;28;96664;-81
2023/03/28 08:36:53;;;;;;;2.60;1.30;;;7.00;84.50;;;6.24;50.90;100240.19;10242215;28;98838;-82
2023/03/28 08:42:15;;;;;;;3.60;1.20;;;7.20;80.80;;;6.32;49.87;100232.41;10211088;28;96524;-80
2023/03/28 08:47:29;;;;;;;2.60;1.20;;;7.40;78.30;;;6.12;50.05;100239.50;10224226;28;96654;-80
2023/03/28 08:52:33;;;;;;;3.80;1.70;;;7.40;77.50;;;6.34;52.65;100223.38;10210667;28;96461;-80
2023/03/28 08:57:39;;;;;;;3.53;1.30;;;7.40;80.70;;;6.85;50.17;100206.34;10201429;28;96675;-80
2023/03/28 09:02:43;;;;;;;2.53;1.10;;;7.80;79.20;;;7.36;47.97;100225.34;10288702;28;96720;-81
2023/03/28 09:08:00;;;;;;;3.63;1.10;;;8.20;75.70;;;7.10;48.30;100199.56;10294645;28;96775;-80
2023/03/28 09:13:39;;;;;;;2.67;0.90;;;8.20;74.60;;;7.02;46.51;100188.91;10292787;28;96494;-80
2023/03/28 09:18:55;;;;;;;2.40;0.67;;;8.10;71.90;;;7.13;45.27;100195.78;10257629;28;98499;-82
2023/03/28 09:24:25;;;;;;;3.63;0.77;;;8.30;68.80;;;7.53;42.07;100192.81;10253837;28;97359;-80
2023/03/28 09:29:31;;;;;;;1.17;0.77;;;8.80;64.50;;;7.70;40.40;100191.19;10255411;28;96594;-81
2023/03/28 09:34:43;;;;;;;1.00;0.57;;;8.90;62.10;;;7.08;39.94;100182.22;10259824;28;96942;-81
2023/03/28 09:39:51;;;;;;;1.57;0.50;;;8.50;60.10;;;6.78;39.50;100202.63;10257970;28;96775;-80
2023/03/28 09:45:18;;;;;;;1.17;0.67;;;8.30;58.60;;;6.90;39.46;100198.00;10256492;28;96448;-81
2023/03/28 09:50:21;;;;;;;1.20;0.60;;;8.20;58.50;;;6.90;40.94;100195.34;10281843;28;96516;-81
2023/03/28 09:55:29;;;;;;;1.80;0.80;;;8.20;60.50;;;7.36;40.89;100198.91;10263025;28;96820;-80
2023/03/28 10:00:49;;;;;;;1.40;0.60;;;8.60;60.50;;;7.66;41.55;100209.16;10256204;28;96850;-80
2023/03/28 10:05:52;;;;;;;1.43;0.60;;;8.80;60.90;;;7.74;40.13;100203.97;10280031;28;96526;-80
2023/03/28 10:11:05;;;;;;;1.03;0.80;;;9.10;59.40;;;7.62;40.08;100206.97;10226499;28;96504;-79
2023/03/28 10:16:24;;;;;;;1.80;1.00;;;8.90;58.90;;;7.35;40.46;100213.09;10227553;28;96471;-81
2023/03/28 10:21:31;;;;;;;2.13;1.00;;;8.80;58.80;;;7.55;40.27;100200.59;10261482;28;96661;-81
2023/03/28 10:26:34;;;;;;;2.53;0.90;;;9.00;58.80;;;7.24;40.65;100190.31;10242071;28;96424;-81
2023/03/28 10:31:38;;;;;;;2.07;0.97;;;8.70;58.60;;;6.74;42.88;100216.25;10221601;28;96543;-81
2023/03/28 10:36:42;;;;;;;2.70;1.20;;;8.30;60.80;;;6.09;44.79;100227.41;10199401;28;96580;-81
2023/03/28 10:42:00;;;;;;;1.50;1.00;;;7.60;63.00;;;5.91;46.73;100252.81;10230569;28;96717;-81
2023/03/28 10:47:17;;;;;;;2.13;1.17;;;7.40;65.50;;;6.07;47.95;100245.19;10237284;28;98396;-81
2023/03/28 10:52:38;;;;;;;3.07;1.17;;;7.50;67.10;;;6.80;41.77;100242.09;10273834;28;97285;-81
2023/03/28 10:58:08;;;;;;;2.05;0.82;;;8.10;61.50;;;7.79;38.09;100227.31;10296485;28;96351;-82
2023/03/28 11:03:22;;;;;;;1.80;0.70;;;9.10;56.00;;;8.49;37.97;100224.84;10276325;28;96551;-81
2023/03/28 11:09:30;;;;;;;2.35;1.20;;;9.80;56.90;;;8.73;35.82;100219.72;10199821;28;96521;-82
2023/03/28 11:15:04;;;;;;;0.70;0.50;;;10.10;52.90;;;8.27;36.42;100215.53;10248806;28;98386;-81
2023/03/28 11:20:50;;;;;;;1.45;0.93;;;9.80;52.90;;;8.49;37.05;100208.97;10231071;28;96635;-81
2023/03/28 11:26:02;;;;;;;5.78;2.60;;;9.90;54.10;;;9.20;36.97;100221.16;10226919;28;96530;-82
2023/03/28 11:31:16;;;;;;;1.15;0.70;;;10.60;54.40;;;9.51;36.25;100211.69;10295220;28;96437;-81
2023/03/28 11:36:37;;;;;;;2.83;0.50;;;10.90;53.80;;;9.27;33.15;100209.75;10245242;28;96576;-80
2023/03/28 11:41:43;;;;;;;7.68;4.80;;;10.90;49.90;;;9.10;30.30;100200.88;10251379;28;96546;-80
2023/03/28 11:47:07;;;;;;;2.25;0.90;;;10.80;45.00;;;9.27;31.21;100228.31;10252514;28;96418;-80
2023/03/28 11:52:32;;;;;;;0.60;0.50;;;10.80;46.40;;;9.60;29.82;100210.72;10216065;28;96442;-80
2023/03/28 11:57:59;;;;;;;0.73;0.40;;;11.20;44.60;;;9.68;29.60;100206.44;10214771;28;96450;-80
2023/03/28 12:03:29;;;;;;;1.42;0.50;;;11.30;44.90;;;9.22;29.71;100209.41;10204746;28;96647;-80
2023/03/28 12:08:50;;;;;;;1.88;0.80;;;11.00;44.20;;;9.15;29.87;100211.03;10256690;28;96569;-80
2023/03/28 12:14:25;;;;;;;1.42;0.50;;;10.80;44.50;;;9.04;28.15;100198.88;10284707;28;96401;-80
2023/03/28 12:19:38;;;;;;;1.13;0.63;;;10.70;41.70;;;8.69;28.89;100218.38;10258463;28;96707;-81
2023/03/28 12:25:05;;;;;;;2.20;0.73;;;10.40;43.20;;;8.83;28.56;100231.06;10267215;28;96505;-81
2023/03/28 12:30:35;;;;;;;1.50;0.70;;;10.60;42.60;;;8.89;28.99;100223.50;10288370;28;97597;-80
2023/03/28 12:35:45;;;;;;;0.82;0.30;;;10.70;42.90;;;9.12;27.80;100224.63;10264909;28;96556;-80
2023/03/28 12:41:05;;;;;;;;;;;10.90;41.60;;;9.08;27.14;100252.41;10253422;28;96467;-81
2023/03/28 12:46:17;;;;;;;0.93;0.55;;;10.80;40.40;;;8.94;26.42;100234.44;10224706;28;96540;-81
2023/03/28 12:51:37;;;;;;;1.60;0.40;;;10.60;39.60;;;8.74;27.33;100245.22;10218185;28;99630;-80
2023/03/28 12:57:02;;;;;;;0.57;0.40;;;10.60;40.50;;;8.65;27.45;100266.53;10251324;28;96537;-81
2023/03/28 13:02:18;;;;;;;1.55;0.70;;;10.60;40.30;;;8.62;27.60;100262.38;10236690;28;96565;-81
2023/03/28 13:07:46;;;;;;;0.98;0.70;;;10.60;40.70;;;8.53;27.73;100266.78;10248808;28;96477;-81
2023/03/28 13:13:57;;;;;;;1.83;1.10;;;10.50;40.50;;;8.32;28.82;100272.34;10251701;28;96365;-81
2023/03/28 13:19:13;;;;;;;1.17;0.77;;;10.30;41.90;;;8.38;29.70;100260.34;10225629;28;96622;-80
2023/03/28 13:24:40;;;;;;;1.43;0.50;;;10.10;43.00;;;8.37;28.16;100273.75;10250136;28;97451;-81
2023/03/28 13:29:50;;;;;;;0.83;0.60;;;10.10;41.40;;;8.03;28.64;100292.88;10249100;28;96554;-80
2023/03/28 13:34:58;;;;;;;4.03;0.90;;;9.80;41.80;;;7.83;38.70;100315.16;10265621;28;96812;-81
2023/03/28 13:40:04;;;;;;;8.50;0.97;;;9.90;52.00;;;7.06;40.69;100322.38;10248468;28;96580;-81
2023/03/28 13:45:22;;;;;;;4.60;0.90;;;9.20;53.50;;;6.41;41.83;100339.78;10264667;28;96438;-81
2023/03/28 13:50:31;;;;;;;4.53;0.80;;;8.50;54.70;;;6.04;42.51;100352.78;10279888;28;97359;-80
2023/03/28 13:55:34;;;;;;;5.07;0.90;;;8.00;55.40;;;5.94;43.32;100352.78;10259017;28;96563;-81
2023/03/28 14:00:38;;;;;;;2.50;1.10;;;7.90;56.00;;;6.00;41.82;100346.97;10249124;28;96537;-81
2023/03/28 14:05:44;;;;;;;4.77;0.87;;;8.00;54.80;;;6.25;40.23;100350.06;10255976;28;96537;-81
2023/03/28 14:10:51;;;;;;;0.97;0.70;;;8.20;53.00;;;6.42;39.24;100358.16;10249168;28;96478;-81
2023/03/28 14:15:54;;;;;;;1.13;0.70;;;8.40;52.20;;;6.35;37.67;100364.91;10233181;28;96666;-81
2023/03/28 14:20:59;;;;;;;2.67;1.07;;;8.30;50.60;;;6.34;38.54;100359.78;10287305;28;96600;-81
2023/03/28 14:26:17;;;;;;;1.43;0.93;;;8.40;51.50;;;6.47;39.77;100378.84;10279986;28;96424;-80
2023/03/28 14:31:37;;;;;;;2.47;1.20;;;8.60;52.30;;;6.79;36.06;100369.84;10277462;28;97056;-80
2023/03/28 14:37:17;;;;;;;2.40;1.43;;;8.90;49.10;;;6.97;33.54;100362.88;10251025;28;96844;-81
2023/03/28 14:42:22;;;;;;;1.30;0.70;;;9.10;45.80;;;7.07;33.23;100376.06;10245084;28;97780;-81
2023/03/28 14:47:32;;;;;;;2.17;1.03;;;9.10;45.70;;;7.06;32.19;100393.72;10254401;28;96537;-81
2023/03/28 14:52:39;;;;;;;2.27;0.97;;;9.10;44.90;;;6.96;33.39;100392.91;10257261;28;96485;-81
2023/03/28 14:57:45;;;;;;;2.20;0.80;;;9.10;45.80;;;7.21;34.55;100394.97;10261769;28;96553;-80
2023/03/28 15:02:51;;;;;;;1.73;0.77;;;9.30;47.30;;;7.15;36.36;100416.69;10252547;28;96798;-81
2023/03/28 15:08:01;;;;;;;2.37;1.13;;;9.30;49.00;;;6.90;35.71;100411.97;10248779;28;97018;-80
2023/03/28 15:13:22;;;;;;;2.37;0.60;;;9.00;48.40;;;6.78;35.82;100415.69;10293742;28;96441;-81
2023/03/28 15:18:32;;;;;;;2.08;1.30;;;8.70;48.70;;;6.90;36.47;100420.72;10272013;28;97179;-81
2023/03/28 15:23:55;;;;;;;2.30;1.30;;;8.90;49.30;;;7.18;34.57;100423.47;10251130;28;96568;-81
2023/03/28 15:28:59;;;;;;;1.33;0.80;;;9.10;47.50;;;7.18;33.32;100424.31;10252467;28;96672;-81
2023/03/28 15:34:10;;;;;;;1.27;0.53;;;9.30;45.80;;;7.11;33.47;100431.16;10250390;28;98557;-80
2023/03/28 15:39:24;;;;;;;0.93;0.50;;;9.20;46.20;;;6.89;32.21;100436.69;10248713;28;97539;-81
2023/03/28 15:44:37;;;;;;;2.50;0.93;;;9.00;44.80;;;6.36;33.68;100432.59;10250567;28;97427;-78
2023/03/28 15:49:40;;;;;;;2.77;1.10;;;8.40;46.10;;;6.04;35.77;100477.59;10237829;28;97777;-79
2023/03/28 15:54:53;;;;;;;3.67;0.80;;;8.00;48.40;;;5.81;33.05;100450.53;10249358;28;97275;-80
2023/03/28 15:59:59;;;;;;;1.80;0.60;;;7.70;45.70;;;5.68;33.63;100465.72;10224211;28;97583;-79
2023/03/28 16:05:31;;;;;;;1.20;0.63;;;7.50;46.10;;;5.35;34.95;100487.84;10246058;28;96522;-79
2023/03/28 16:10:38;;;;;;;22.27;10.63;;;7.20;47.90;;;5.06;36.03;100506.88;10240372;28;98290;-78
2023/03/28 16:15:42;;;;;;;5.30;1.20;;;6.80;48.90;;;4.75;36.58;100500.63;10264483;28;96772;-79
2023/03/28 16:20:45;;;;;;;1.70;0.90;;;6.40;49.60;;;4.45;37.13;100530.22;10241961;28;97345;-79
2023/03/28 16:25:49;;;;;;;2.53;0.90;;;6.10;50.50;;;4.17;38.50;100530.69;10249225;28;96580;-80
2023/03/28 16:30:52;;;;;;;2.97;1.47;;;5.80;51.70;;;3.94;39.53;100524.56;10259625;28;98610;-80
2023/03/28 16:35:55;;;;;;;10.83;5.27;;;5.60;52.50;;;3.79;40.62;100552.03;10253290;28;97772;-79
2023/03/28 16:40:58;;;;;;;2.23;1.10;;;5.40;53.50;;;3.71;41.40;100563.09;10268590;28;98546;-79
2023/03/28 16:46:01;;;;;;;2.10;1.23;;;5.30;54.80;;;3.66;42.59;100571.34;10262332;28;96543;-79
2023/03/28 16:51:05;;;;;;;2.80;1.43;;;5.30;55.20;;;3.60;42.95;100594.59;10271519;28;96657;-79
2023/03/28 16:56:14;;;;;;;2.13;1.23;;;5.30;56.30;;;3.62;44.05;100614.56;10248524;28;96687;-79
2023/03/28 17:01:20;;;;;;;3.43;1.73;;;5.20;57.50;;;3.55;47.55;100617.78;10249589;28;96563;-80
2023/03/28 17:06:23;;;;;;;3.13;1.60;;;5.20;61.30;;;3.41;49.18;100624.84;10265984;28;96452;-80
2023/03/28 17:11:27;;;;;;;3.00;1.77;;;5.10;62.10;;;3.26;49.59;100623.34;10250635;28;96530;-80
2023/03/28 17:16:30;;;;;;;4.70;2.67;;;4.90;62.10;;;3.04;49.71;100631.09;10250821;28;97652;-80
2023/03/28 17:21:33;;;;;;;5.30;2.87;;;4.70;62.40;;;2.84;50.15;100645.63;10253823;28;98133;-81
2023/03/28 17:26:36;;;;;;;3.60;2.00;;;4.60;63.10;;;2.68;49.46;100664.22;10283437;28;96528;-81
2023/03/28 17:31:39;;;;;;;9.20;5.23;;;4.40;62.70;;;2.55;49.52;100669.47;10271043;28;97368;-81
2023/03/28 17:36:43;;;;;;;14.47;6.80;;;4.30;62.60;;;2.47;49.86;100670.94;10244310;28;96685;-81
2023/03/28 17:41:46;;;;;;;9.73;4.80;;;4.20;63.20;;;2.38;49.95;100678.47;10252716;28;96661;-82
2023/03/28 17:46:50;;;;;;;4.63;2.20;;;4.10;63.40;;;2.29;50.74;100680.91;10248420;28;96640;-81
2023/03/28 17:51:55;;;;;;;22.27;8.30;;;4.00;64.30;;;2.21;51.33;100681.38;10252432;28;96673;-81
2023/03/28 17:56:59;;;;;;;3.97;2.00;;;4.00;64.20;;;2.14;51.58;100704.56;10231307;28;97534;-84
2023/03/28 18:02:02;;;;;;;2.53;1.50;;;3.90;64.90;;;2.05;52.15;100705.19;10259218;28;97467;-82
2023/03/28 18:07:06;;;;;;;7.50;3.37;;;3.80;65.60;;;2.01;52.39;100715.97;10241723;28;97263;-81
2023/03/28 18:12:20;;;;;;;13.20;5.50;;;3.80;65.50;;;1.97;52.59;100712.69;10251714;28;99832;-81
2023/03/28 18:17:23;;;;;;;8.83;4.50;;;3.70;65.60;;;1.84;53.36;100715.28;10250090;28;97606;-81
2023/03/28 18:22:27;;;;;;;16.37;7.87;;;3.70;66.20;;;1.74;53.73;100719.44;10269686;28;98432;-82
2023/03/28 18:27:30;;;;;;;10.20;5.23;;;3.50;66.50;;;1.71;52.96;100726.66;10231183;28;96706;-80
2023/03/28 18:32:35;;;;;;;4.00;2.10;;;3.50;66.40;;;1.73;52.06;100738.69;10247705;28;96586;-80
2023/03/28 18:37:38;;;;;;;7.33;2.37;;;3.50;65.90;;;1.72;51.74;100742.25;10245115;28;96566;-80
2023/03/28 18:42:41;;;;;;;6.30;3.43;;;3.50;65.40;;;1.72;51.35;100737.03;10262987;28;96642;-80
2023/03/28 18:47:45;;;;;;;9.43;4.40;;;3.50;65.10;;;1.72;50.46;100739.66;10252438;28;96555;-80
2023/03/28 18:52:48;;;;;;;6.17;2.60;;;3.50;64.20;;;1.68;50.05;100734.69;10244968;28;96813;-80
2023/03/28 18:57:51;;;;;;;9.10;3.33;;;3.40;63.50;;;1.69;49.55;100739.84;10241365;28;97378;-80
2023/03/28 19:02:55;;;;;;;4.17;1.87;;;3.50;63.40;;;1.64;49.29;100733.22;10250570;28;98295;-81
2023/03/28 19:07:58;;;;;;;8.73;3.90;;;3.40;63.10;;;1.52;49.81;100738.31;10266176;28;96515;-81
2023/03/28 19:13:01;;;;;;;10.17;4.50;;;3.40;63.20;;;1.44;50.24;100747.56;10259541;28;97114;-81
2023/03/28 19:18:05;;;;;;;7.23;3.67;;;3.30;63.30;;;1.40;50.02;100751.31;10261379;28;96624;-80
2023/03/28 19:23:09;;;;;;;4.13;1.90;;;3.20;63.20;;;1.40;50.16;100744.31;10251260;28;96940;-81
2023/03/28 19:28:12;;;;;;;4.77;2.13;;;3.20;63.20;;;1.41;50.05;100747.78;10250706;28;96649;-79
2023/03/28 19:33:15;;;;;;;3.77;1.80;;;3.20;63.20;;;1.46;49.57;100750.94;10225442;28;97353;-79
2023/03/28 19:38:18;;;;;;;4.27;2.10;;;3.20;62.90;;;1.53;49.29;100744.38;10235121;28;98022;-80
2023/03/28 19:43:23;;;;;;;3.23;1.40;;;3.30;62.90;;;1.51;49.83;100736.63;10247330;28;96907;-80
2023/03/28 19:48:26;;;;;;;4.90;1.67;;;3.30;63.10;;;1.47;49.82;100732.50;10244820;28;98052;-83
2023/03/28 19:53:30;;;;;;;4.73;1.60;;;3.30;63.10;;;1.41;50.21;100727.66;10251420;28;96812;-84
2023/03/28 19:58:33;;;;;;;11.73;4.80;;;3.20;63.40;;;1.27;50.64;100725.91;10253412;28;96546;-84
2023/03/28 20:03:37;;;;;;;5.67;2.70;;;3.20;63.90;;;1.21;50.87;100731.53;10251469;28;96640;-84
2023/03/28 20:08:41;;;;;;;12.07;5.97;;;3.10;64.00;;;1.05;51.39;100738.63;10249790;28;96580;-84
2023/03/28 20:13:46;;;;;;;7.20;2.83;;;2.90;64.80;;;0.99;52.18;100732.00;10226415;28;98462;-85
2023/03/28 20:18:48;;;;;;;6.93;2.47;;;2.80;65.70;;;1.11;51.21;100733.03;10241484;28;99031;-83
2023/03/28 20:23:52;;;;;;;4.03;1.20;;;2.90;64.70;;;1.24;50.36;100736.56;10252956;28;96650;-83
2023/03/28 20:28:58;;;;;;;4.53;1.60;;;3.00;64.20;;;1.35;50.17;100746.38;10227798;28;96836;-82
2023/03/28 20:34:02;;;;;;;4.83;1.80;;;3.10;64.20;;;1.30;50.63;100751.03;10239499;28;98593;-83
2023/03/28 20:39:05;;;;;;;1.70;1.10;;;3.10;64.20;;;1.31;50.63;100743.09;10248075;28;96715;-83
2023/03/28 20:44:08;;;;;;;2.90;1.30;;;3.10;64.20;;;1.40;49.64;100746.09;10202900;28;97071;-81
2023/03/28 20:49:11;;;;;;;3.30;1.50;;;3.10;63.90;;;1.47;50.12;100748.22;10230963;28;98923;-81
2023/03/28 20:54:15;;;;;;;2.87;1.20;;;3.20;63.80;;;1.40;50.38;100744.31;10262112;28;97265;-81
2023/03/28 20:59:18;;;;;;;4.53;1.57;;;3.20;64.10;;;1.31;50.63;100764.03;10269164;28;97007;-81
2023/03/28 21:04:22;;;;;;;3.73;1.97;;;3.10;64.70;;;1.32;50.46;100754.44;10248017;28;97082;-81
2023/03/28 21:09:25;;;;;;;3.10;1.60;;;3.10;64.50;;;1.24;50.86;100754.88;10228466;28;96743;-82
2023/03/28 21:14:29;;;;;;;4.13;1.87;;;3.10;64.60;;;1.11;51.61;100746.09;10237009;28;96854;-83
2023/03/28 21:19:33;;;;;;;3.43;1.43;;;3.00;65.00;;;1.03;51.87;100758.84;10265951;28;96869;-84
2023/03/28 21:24:36;;;;;;;2.93;1.40;;;2.90;65.30;;;0.95;52.39;100771.53;10252836;28;98238;-83
2023/03/28 21:29:39;;;;;;;4.17;1.90;;;2.80;66.10;;;0.93;52.24;100762.94;10276383;28;96673;-82
2023/03/28 21:34:43;;;;;;;4.67;1.90;;;2.70;65.80;;;0.84;52.92;100766.97;10271429;28;96532;-82
2023/03/28 21:39:46;;;;;;;5.03;2.30;;;2.70;66.10;;;0.74;53.38;100764.03;10251050;28;96666;-82